createdAt,value
2022-10-02T00:00:47.145Z,7.28
2022-10-02T00:10:54.591Z,7.23
2022-10-02T00:21:01.802Z,7.80
2022-10-02T00:31:26.502Z,7.88
2022-10-02T00:41:59.908Z,7.83
2022-10-02T00:52:15.018Z,6.45
2022-10-02T01:12:38.100Z,8.05
2022-10-02T01:22:47.876Z,7.32
2022-10-02T01:32:56.161Z,8.00
2022-10-02T01:43:02.264Z,7.85
2022-10-02T01:53:13.179Z,7.25
2022-10-02T02:03:23.305Z,8.27
2022-10-02T02:13:34.670Z,8.35
2022-10-02T02:23:40.993Z,7.65
2022-10-02T02:33:49.075Z,8.05
2022-10-02T02:43:57.500Z,7.00
2022-10-02T02:54:08.577Z,4.75
2022-10-02T03:04:13.969Z,3.28
2022-10-02T03:14:47.058Z,2.60
2022-10-02T03:24:53.345Z,3.13
2022-10-02T03:34:58.283Z,2.67
2022-10-02T03:55:22.323Z,7.10
2022-10-02T04:05:30.040Z,11.05
2022-10-02T04:15:52.667Z,12.65
2022-10-02T04:26:01.679Z,12.82
2022-10-02T04:36:18.381Z,14.20
2022-10-02T04:46:47.453Z,19.58
2022-10-02T04:57:06.654Z,28.13
2022-10-02T05:07:31.259Z,22.88
2022-10-02T05:17:50.763Z,25.43
2022-10-02T05:28:21.408Z,27.25
2022-10-02T05:38:44.695Z,27.00
2022-10-02T05:48:54.111Z,22.88
2022-10-02T05:59:05.654Z,17.52
2022-10-02T06:09:19.763Z,12.15
2022-10-02T06:19:28.567Z,10.23
2022-10-02T06:29:38.161Z,10.95
2022-10-02T06:40:06.918Z,10.70
2022-10-02T06:50:36.192Z,11.93
2022-10-02T07:00:48.928Z,12.68
2022-10-02T07:11:02.559Z,12.27
2022-10-02T07:21:16.607Z,15.40
2022-10-02T07:31:30.450Z,16.35
2022-10-02T07:41:53.312Z,18.90
2022-10-02T07:52:03.380Z,14.05
2022-10-02T08:02:15.071Z,13.48
2022-10-02T08:12:28.286Z,11.02
2022-10-02T08:22:38.936Z,12.27
2022-10-02T08:32:42.279Z,12.02
2022-10-02T08:43:25.964Z,11.07
2022-10-02T08:54:01.257Z,9.30
2022-10-02T09:04:38.240Z,10.38
2022-10-02T09:14:50.106Z,7.65
2022-10-02T09:25:22.208Z,7.40
2022-10-02T09:36:02.001Z,5.78
2022-10-02T09:46:47.432Z,5.85
2022-10-02T09:57:31.912Z,6.22
2022-10-02T10:07:51.597Z,6.87
2022-10-02T10:18:26.694Z,6.45
2022-10-02T10:29:21.305Z,5.60
2022-10-02T10:39:50.376Z,5.20
2022-10-02T10:50:29.790Z,5.25
2022-10-02T11:00:41.873Z,4.85
2022-10-02T11:11:00.798Z,6.05
2022-10-02T11:21:21.725Z,4.50
2022-10-02T11:31:37.265Z,4.63
2022-10-02T11:42:17.552Z,4.50
2022-10-02T11:52:47.992Z,5.18
2022-10-02T12:03:02.128Z,6.70
2022-10-02T12:13:27.733Z,6.60
2022-10-02T12:23:59.447Z,8.73
2022-10-02T12:34:26.983Z,10.40
2022-10-02T12:44:56.596Z,9.80
2022-10-02T12:55:47.786Z,7.80
2022-10-02T13:06:29.746Z,7.80
2022-10-02T13:16:54.752Z,3.17
2022-10-02T13:27:04.314Z,3.83
2022-10-02T13:37:19.377Z,3.60
2022-10-02T13:47:34.496Z,2.83
2022-10-02T13:57:56.782Z,3.20
2022-10-02T14:08:16.101Z,4.03
2022-10-02T14:18:35.861Z,3.65
2022-10-02T14:28:59.222Z,2.80
2022-10-02T14:39:19.156Z,3.33
2022-10-02T14:49:41.346Z,2.97
2022-10-02T15:00:03.365Z,3.33
2022-10-02T15:10:16.410Z,2.88
2022-10-02T15:20:31.132Z,3.58
2022-10-02T15:30:40.120Z,3.13
2022-10-02T15:40:56.453Z,3.42
2022-10-02T15:51:08.704Z,3.45
2022-10-02T16:01:27.896Z,3.22
2022-10-02T16:11:53.362Z,3.88
2022-10-02T16:22:18.040Z,3.10
2022-10-02T16:32:31.190Z,3.90
2022-10-02T16:42:49.358Z,2.80
2022-10-02T16:52:57.115Z,3.22
2022-10-02T17:03:09.560Z,3.78
2022-10-02T17:13:24.743Z,4.03
2022-10-02T17:23:38.338Z,3.78
2022-10-02T17:33:46.506Z,3.88
2022-10-02T17:44:03.143Z,3.90
2022-10-02T17:54:40.611Z,3.58
2022-10-02T18:05:02.256Z,4.15
2022-10-02T18:15:25.306Z,3.53
2022-10-02T18:25:53.876Z,3.42
2022-10-02T18:36:18.048Z,4.00
2022-10-02T18:46:37.373Z,4.43
2022-10-02T18:56:54.117Z,3.40
2022-10-02T19:07:07.503Z,4.35
2022-10-02T19:17:15.193Z,3.70
2022-10-02T19:27:26.617Z,4.68
2022-10-02T19:37:31.634Z,5.32
2022-10-02T19:47:44.575Z,5.15
2022-10-02T19:57:49.697Z,5.55
2022-10-02T20:17:59.738Z,6.50
2022-10-02T20:28:11.505Z,5.78
2022-10-02T20:38:22.294Z,7.55
2022-10-02T20:49:09.087Z,8.43
2022-10-02T20:59:52.504Z,18.88
2022-10-02T21:10:39.425Z,9.80
2022-10-02T21:21:01.097Z,7.47
2022-10-02T21:31:18.072Z,8.52
2022-10-02T21:41:55.157Z,6.78
2022-10-02T21:52:25.919Z,7.68
2022-10-02T22:02:56.809Z,6.82
2022-10-02T22:13:18.231Z,7.20
2022-10-02T22:23:35.147Z,8.23
2022-10-02T22:33:57.134Z,9.63
2022-10-02T22:44:06.576Z,8.40
2022-10-02T22:54:21.469Z,6.82
2022-10-02T23:04:32.878Z,6.27
2022-10-02T23:14:43.247Z,7.50
2022-10-02T23:24:52.440Z,8.43
2022-10-02T23:35:04.548Z,7.63
2022-10-02T23:45:18.203Z,7.78
2022-10-02T23:55:39.594Z,7.18
